Correntina, Brazil
Current Conditions -  °F | °C
As of 11:00 AM on Thursday 27 Nov 2014 (Local Time) from SBMK Reporting Station
Scattered Clouds Scattered Clouds  
Wind Chill: 86°   Ceiling: Unl
Heat Index: 87°   Visibility: 6mi
Dew Point: 64°   Wind: 7mph
Humidity: 48%   Direction: NA
Pressure: 30"   Gusts: NA
Location:  13.34°S, 44.64°W
Report Text: SBMK 271400Z VRB06KT 9999 SCT040 SCT100 30/18 Q1016
Loading
Personal Weather Stations






























Interactive Weather Map New forecast layout! Learn more

10-Day Weather Forecast

Advertisements
Track Severe Weather on mobile